Terminal Aerodrome Forecast
Issued by NWS

Home | Current Version | Previous Version | Text Only | Print | Product List | Glossary On
Versions: 1 2 3 4 5 6 7 8 9 10 11 12 13 14 15
000
FTUS41 KBTV 171138 AAA
TAFMPV
TAF AMD
KMPV 171138Z 1712/1812 00000KT 4SM -SN BR OVC040
     FM171300 00000KT 2SM -SN BR OVC025
     FM171400 00000KT 4SM -SN BR OVC030
     FM171800 00000KT 2SM -SN BR OVC025
     FM172200 31005KT P6SM VCSH BKN025
     FM180000 30004KT 6SM BR BKN035
     FM180500 00000KT 6SM BR SCT080=

USA.gov is the U.S. government's official web portal to all federal, state and local government web resources and services.